Time;durP1;ratioP1;P1;durP2;ratioP2;P2;SDS_P1;SDS_P2;PMS_P1;PMS_P2;Temp;Humidity;BMP_temperature;BMP_pressure;BME280_temperature;BME280_humidity;BME280_pressure;Samples;Min_cycle;Max_cycle;Signal;HPM_P1;HPM_P2
2023/11/04 00:01:05;;;;;;;2.15;1.13;;;;;9.00;96210.00;;;;5035090;28;20124;-66
2023/11/04 00:03:47;;;;;;;2.60;1.05;;;;;9.10;96218.00;;;;5034439;28;20499;-63
2023/11/04 00:06:14;;;;;;;1.55;0.98;;;;;9.10;96205.00;;;;5034921;28;20049;-66
2023/11/04 00:08:40;;;;;;;1.90;1.30;;;;;9.10;96209.00;;;;5033408;28;20057;-66
2023/11/04 00:11:07;;;;;;;1.27;1.08;;;;;9.00;96209.00;;;;5034814;28;20037;-66
2023/11/04 00:13:34;;;;;;;1.13;1.02;;;;;9.10;96207.00;;;;5034140;28;20049;-66
2023/11/04 00:16:03;;;;;;;1.45;1.08;;;;;9.00;96200.00;;;;5034765;28;20048;-62
2023/11/04 00:18:29;;;;;;;1.73;0.90;;;;;9.00;96190.00;;;;5034595;28;20069;-63
2023/11/04 00:20:56;;;;;;;2.33;1.10;;;;;9.00;96195.00;;;;5034762;28;20064;-66
2023/11/04 00:23:23;;;;;;;1.10;1.00;;;;;9.10;96205.00;;;;5033285;28;20065;-64
2023/11/04 00:25:49;;;;;;;2.65;1.20;;;;;9.00;96197.00;;;;5034284;28;20045;-65
2023/11/04 00:28:19;;;;;;;3.08;1.23;;;;;9.00;96203.00;;;;5016795;28;20490;-65
2023/11/04 00:30:45;;;;;;;3.13;1.33;;;;;9.10;96203.00;;;;5034476;28;20037;-63
2023/11/04 00:33:14;;;;;;;2.97;1.20;;;;;9.10;96197.00;;;;5034402;28;20049;-63
2023/11/04 00:35:40;;;;;;;2.92;1.10;;;;;9.10;96194.00;;;;5033924;28;20045;-63
2023/11/04 00:38:08;;;;;;;2.05;1.33;;;;;9.20;96198.00;;;;5016556;28;20084;-65
2023/11/04 00:40:35;;;;;;;2.83;1.30;;;;;9.20;96188.00;;;;5033017;28;20503;-63
2023/11/04 00:43:02;;;;;;;2.72;1.48;;;;;9.20;96197.00;;;;5032933;28;20076;-64
2023/11/04 00:45:29;;;;;;;1.77;1.30;;;;;9.20;96202.00;;;;5031408;28;20103;-62
2023/11/04 00:47:55;;;;;;;2.42;1.15;;;;;9.20;96194.00;;;;5034333;28;20038;-65
2023/11/04 00:50:22;;;;;;;1.50;1.10;;;;;9.30;96192.00;;;;5034060;28;20049;-63
2023/11/04 00:52:49;;;;;;;2.25;1.20;;;;;9.30;96188.00;;;;5032848;28;20466;-63
2023/11/04 00:55:17;;;;;;;3.10;1.30;;;;;9.30;96191.00;;;;5015777;28;20049;-63
2023/11/04 00:57:43;;;;;;;1.48;1.08;;;;;9.20;96189.00;;;;5033990;28;20049;-65
2023/11/04 01:00:11;;;;;;;1.33;1.10;;;;;9.30;96191.00;;;;5032653;28;20167;-63
2023/11/04 01:02:39;;;;;;;2.97;1.40;;;;;9.30;96188.00;;;;5033939;28;20075;-65
2023/11/04 01:05:07;;;;;;;2.05;0.82;;;;;9.30;96196.00;;;;5031897;28;20095;-62
2023/11/04 01:07:33;;;;;;;2.80;1.30;;;;;9.30;96192.00;;;;5032553;28;20056;-65
2023/11/04 01:10:00;;;;;;;1.88;1.38;;;;;9.30;96188.00;;;;5033576;28;20499;-64
2023/11/04 01:12:27;;;;;;;1.83;1.40;;;;;9.30;96180.00;;;;5032425;28;20498;-65
2023/11/04 01:14:53;;;;;;;2.85;1.30;;;;;9.30;96173.00;;;;5032997;28;20056;-65
2023/11/04 01:17:20;;;;;;;1.42;1.33;;;;;9.20;96175.00;;;;5033637;28;20069;-64
2023/11/04 01:19:47;;;;;;;2.28;1.08;;;;;9.20;96174.00;;;;5033298;28;20045;-65
2023/11/04 01:22:13;;;;;;;1.48;1.10;;;;;9.20;96179.00;;;;5033533;28;20120;-65
2023/11/04 01:24:42;;;;;;;2.55;1.38;;;;;9.30;96181.00;;;;5032858;28;20053;-65
2023/11/04 01:27:09;;;;;;;2.38;1.30;;;;;9.30;96173.00;;;;5032147;28;20053;-65
2023/11/04 01:29:36;;;;;;;0.85;0.85;;;;;9.30;96184.00;;;;5033421;28;20132;-65
2023/11/04 01:32:04;;;;;;;2.33;1.40;;;;;9.20;96173.00;;;;5032025;28;20042;-65
2023/11/04 01:34:31;;;;;;;2.10;1.10;;;;;9.20;96161.00;;;;5031444;28;20410;-65
2023/11/04 01:36:58;;;;;;;1.10;1.00;;;;;9.30;96165.00;;;;5033297;28;20403;-65
2023/11/04 01:39:25;;;;;;;3.38;1.40;;;;;9.20;96158.00;;;;5033041;28;20116;-64
2023/11/04 01:41:52;;;;;;;1.33;1.17;;;;;9.30;96153.00;;;;5031917;28;20116;-65
2023/11/04 01:44:19;;;;;;;1.67;1.10;;;;;9.30;96159.00;;;;5032591;28;20037;-64
2023/11/04 01:46:45;;;;;;;1.35;1.10;;;;;9.30;96150.00;;;;5033032;28;20092;-65
2023/11/04 01:49:12;;;;;;;2.90;1.33;;;;;9.30;96149.00;;;;5032081;28;20057;-65
2023/11/04 01:51:39;;;;;;;3.92;1.35;;;;;9.30;96147.00;;;;5032924;28;20076;-65
2023/11/04 01:54:06;;;;;;;2.25;1.52;;;;;9.30;96149.00;;;;5014976;28;20384;-65
2023/11/04 01:56:35;;;;;;;1.63;1.40;;;;;9.30;96145.00;;;;5032717;28;20041;-65
2023/11/04 01:59:03;;;;;;;1.20;1.10;;;;;9.30;96152.00;;;;5015089;28;20092;-64
2023/11/04 02:01:31;;;;;;;4.03;1.42;;;;;9.30;96143.00;;;;5031409;28;20132;-65
2023/11/04 02:03:58;;;;;;;2.78;1.35;;;;;9.30;96152.00;;;;5031024;28;20042;-66
2023/11/04 02:06:24;;;;;;;2.53;1.48;;;;;9.30;96151.00;;;;5032651;28;20457;-65
2023/11/04 02:08:51;;;;;;;3.03;1.58;;;;;9.30;96140.00;;;;5032667;28;20041;-65
2023/11/04 02:11:18;;;;;;;4.15;1.90;;;;;9.30;96155.00;;;;5031360;28;20100;-65
2023/11/04 02:13:45;;;;;;;2.00;1.90;;;;;9.30;96150.00;;;;5030633;28;20057;-65
2023/11/04 02:16:11;;;;;;;2.38;1.17;;;;;9.40;96150.00;;;;5032241;28;20088;-65
2023/11/04 02:18:38;;;;;;;4.00;1.63;;;;;9.40;96144.00;;;;5031085;28;20145;-64
2023/11/04 02:21:05;;;;;;;2.13;1.50;;;;;9.30;96138.00;;;;5032466;28;20041;-65
2023/11/04 02:23:32;;;;;;;1.45;1.23;;;;;9.30;96133.00;;;;5032143;28;20537;-65
2023/11/04 02:25:59;;;;;;;2.40;1.35;;;;;9.30;96142.00;;;;5031116;28;20494;-65
2023/11/04 02:28:25;;;;;;;1.35;1.05;;;;;9.30;96134.00;;;;5031008;28;20073;-65
2023/11/04 02:30:52;;;;;;;1.55;1.30;;;;;9.30;96145.00;;;;5032294;28;20050;-65
2023/11/04 02:33:19;;;;;;;4.63;1.23;;;;;9.30;96136.00;;;;5030950;28;20410;-65
2023/11/04 02:35:45;;;;;;;2.30;1.13;;;;;9.30;96137.00;;;;5030386;28;20124;-65
2023/11/04 02:38:12;;;;;;;1.48;1.00;;;;;9.30;96135.00;;;;5030856;28;20503;-65
2023/11/04 02:40:39;;;;;;;1.48;1.38;;;;;9.30;96136.00;;;;5030789;28;20042;-64
2023/11/04 02:43:06;;;;;;;2.22;1.42;;;;;9.40;96139.00;;;;5030870;28;20049;-65
2023/11/04 02:45:34;;;;;;;1.83;1.30;;;;;9.40;96128.00;;;;5032066;28;20505;-65
2023/11/04 02:48:01;;;;;;;6.05;1.55;;;;;9.40;96128.00;;;;5031018;28;20045;-66
2023/11/04 02:50:28;;;;;;;3.92;2.08;;;;;9.40;96121.00;;;;5032486;28;20037;-65
2023/11/04 02:52:55;;;;;;;1.80;1.35;;;;;9.30;96113.00;;;;5030727;28;20054;-64
2023/11/04 02:55:21;;;;;;;3.67;1.30;;;;;9.30;96112.00;;;;5030073;28;20104;-65
2023/11/04 02:57:48;;;;;;;2.40;1.45;;;;;9.20;96102.00;;;;5031939;28;20042;-65
2023/11/04 03:00:15;;;;;;;3.00;1.38;;;;;9.20;96097.00;;;;5031827;28;20045;-65
2023/11/04 03:02:42;;;;;;;1.40;1.30;;;;;9.10;96098.00;;;;5031983;28;20042;-65
2023/11/04 03:05:09;;;;;;;1.05;1.02;;;;;9.10;96104.00;;;;5031330;28;20103;-65
2023/11/04 03:07:35;;;;;;;2.05;1.60;;;;;9.10;96105.00;;;;5031763;28;20172;-63
2023/11/04 03:10:04;;;;;;;1.52;1.30;;;;;9.10;96095.00;;;;5035801;28;20041;-63
2023/11/04 03:12:31;;;;;;;4.43;2.10;;;;;9.10;96088.00;;;;5018268;28;20046;-63
2023/11/04 03:14:58;;;;;;;3.05;1.63;;;;;9.10;96089.00;;;;5033999;28;20072;-63
2023/11/04 03:17:26;;;;;;;2.35;1.38;;;;;9.20;96102.00;;;;5034650;28;20145;-63
2023/11/04 03:19:52;;;;;;;1.98;1.15;;;;;9.20;96100.00;;;;5034331;28;20056;-63
2023/11/04 03:22:19;;;;;;;3.15;1.30;;;;;9.20;96105.00;;;;5034639;28;20041;-62
2023/11/04 03:24:46;;;;;;;2.17;0.82;;;;;9.30;96098.00;;;;5035476;28;20061;-63
2023/11/04 03:27:13;;;;;;;1.00;0.88;;;;;9.30;96101.00;;;;5035683;28;20041;-63
2023/11/04 03:29:40;;;;;;;1.77;1.23;;;;;9.30;96097.00;;;;5034294;28;20653;-62
2023/11/04 03:32:07;;;;;;;2.28;1.20;;;;;9.30;96092.00;;;;5035683;28;20041;-63
2023/11/04 03:34:33;;;;;;;1.50;1.30;;;;;9.40;96093.00;;;;5034929;28;20430;-63
2023/11/04 03:37:02;;;;;;;1.83;1.30;;;;;9.40;96094.00;;;;5035453;28;20065;-64
2023/11/04 03:39:30;;;;;;;1.90;1.10;;;;;9.40;96092.00;;;;5035389;28;20041;-63
2023/11/04 03:41:57;;;;;;;1.13;1.02;;;;;9.40;96088.00;;;;5035286;28;20475;-63
2023/11/04 03:44:24;;;;;;;2.10;0.95;;;;;9.30;96085.00;;;;5033530;28;20128;-63
2023/11/04 03:46:50;;;;;;;1.77;1.08;;;;;9.30;96089.00;;;;5035333;28;20068;-63
2023/11/04 03:49:17;;;;;;;1.23;1.13;;;;;9.40;96081.00;;;;5033858;28;20049;-63
2023/11/04 03:51:44;;;;;;;1.30;1.17;;;;;9.40;96078.00;;;;5035113;28;20065;-63
2023/11/04 03:54:11;;;;;;;3.15;1.25;;;;;9.30;96078.00;;;;5034497;28;20041;-63
2023/11/04 03:56:38;;;;;;;1.27;0.90;;;;;9.30;96073.00;;;;5033979;28;20042;-62
2023/11/04 03:59:05;;;;;;;1.00;0.90;;;;;9.30;96060.00;;;;5033778;28;20486;-62
2023/11/04 04:01:41;;;;;;;1.55;1.13;;;;;9.40;96062.00;;;;5034993;28;20124;-63
2023/11/04 04:04:08;;;;;;;2.35;1.00;;;;;9.40;96040.00;;;;5034420;28;20129;-63
2023/11/04 04:06:35;;;;;;;0.90;0.90;;;;;9.40;96047.00;;;;5034907;28;20044;-62
2023/11/04 04:09:02;;;;;;;3.10;1.15;;;;;9.40;96044.00;;;;5034898;28;20045;-64
2023/11/04 04:11:29;;;;;;;1.80;1.10;;;;;9.50;96038.00;;;;5034783;28;20076;-63
2023/11/04 04:13:56;;;;;;;1.35;0.93;;;;;9.50;96044.00;;;;5033033;28;20466;-63
2023/11/04 04:16:23;;;;;;;2.08;1.00;;;;;9.50;96029.00;;;;5034807;28;20048;-63
2023/11/04 04:18:50;;;;;;;2.40;1.10;;;;;9.50;96033.00;;;;5034360;28;20124;-64
2023/11/04 04:21:17;;;;;;;1.58;1.10;;;;;9.50;96033.00;;;;5017061;28;20049;-62
2023/11/04 04:23:44;;;;;;;2.65;1.00;;;;;9.50;96033.00;;;;5034129;28;20048;-63
2023/11/04 04:26:17;;;;;;;3.25;1.23;;;;;9.40;96032.00;;;;5033688;28;20080;-63
2023/11/04 04:28:44;;;;;;;1.20;0.90;;;;;9.40;96032.00;;;;5034650;28;20049;-64
2023/11/04 04:31:11;;;;;;;2.38;1.05;;;;;9.40;96033.00;;;;5037188;28;20483;-62
2023/11/04 04:33:37;;;;;;;1.20;1.10;;;;;9.30;96039.00;;;;5039274;28;20164;-62
2023/11/04 04:36:04;;;;;;;1.38;1.08;;;;;9.30;96035.00;;;;5038983;28;20513;-63
2023/11/04 04:38:31;;;;;;;2.08;1.33;;;;;9.30;96040.00;;;;5037934;28;20049;-62
2023/11/04 04:40:57;;;;;;;1.45;1.10;;;;;9.30;96028.00;;;;5039009;28;20508;-62
2023/11/04 04:43:24;;;;;;;1.58;1.30;;;;;9.20;96021.00;;;;5038394;28;20047;-65
2023/11/04 04:45:50;;;;;;;1.65;1.10;;;;;9.20;96019.00;;;;5035043;28;20491;-63
2023/11/04 04:48:17;;;;;;;6.43;1.10;;;;;9.20;96012.00;;;;5034164;28;20461;-62
2023/11/04 04:50:44;;;;;;;14.10;9.27;;;;;9.20;96013.00;;;;5034084;28;20093;-62
2023/11/04 04:53:10;;;;;;;2.10;1.30;;;;;9.20;96013.00;;;;5032843;28;20521;-65
2023/11/04 04:55:37;;;;;;;3.92;1.02;;;;;9.20;96014.00;;;;5015713;28;20414;-63
2023/11/04 04:58:03;;;;;;;2.53;1.02;;;;;9.20;96007.00;;;;5032827;28;20049;-62
2023/11/04 05:00:30;;;;;;;1.52;0.65;;;;;9.20;96004.00;;;;5033952;28;20080;-62
2023/11/04 05:02:58;;;;;;;3.03;1.13;;;;;9.30;96007.00;;;;5033809;28;20441;-62
2023/11/04 05:05:25;;;;;;;1.98;1.30;;;;;9.30;96004.00;;;;5033198;28;20041;-62
2023/11/04 05:07:52;;;;;;;3.72;1.67;;;;;9.30;96001.00;;;;5033893;28;20069;-62
2023/11/04 05:10:19;;;;;;;2.53;1.00;;;;;9.40;95993.00;;;;5033656;28;20397;-62
2023/11/04 05:12:45;;;;;;;2.88;1.08;;;;;9.40;95992.00;;;;5032453;28;20084;-63
2023/11/04 05:15:12;;;;;;;1.27;1.00;;;;;9.40;95992.00;;;;5033349;28;20410;-63
2023/11/04 05:17:39;;;;;;;3.38;1.20;;;;;9.40;95988.00;;;;5033674;28;20038;-62
2023/11/04 05:20:07;;;;;;;2.03;1.40;;;;;9.40;95981.00;;;;5033330;28;20131;-64
2023/11/04 05:22:34;;;;;;;2.15;1.20;;;;;9.40;95987.00;;;;5033507;28;20052;-62
2023/11/04 05:25:03;;;;;;;1.92;1.25;;;;;9.40;95987.00;;;;5033029;28;20392;-63
2023/11/04 05:27:30;;;;;;;1.58;0.90;;;;;9.40;95986.00;;;;5033383;28;20041;-63
2023/11/04 05:29:56;;;;;;;2.33;1.27;;;;;9.50;95979.00;;;;5032619;28;20556;-63
2023/11/04 05:32:23;;;;;;;3.30;1.20;;;;;9.40;95990.00;;;;5033500;28;20124;-63
2023/11/04 05:34:50;;;;;;;2.85;1.33;;;;;9.30;95983.00;;;;5032583;28;20517;-65
2023/11/04 05:37:17;;;;;;;1.80;1.40;;;;;9.30;95979.00;;;;5033415;28;20383;-63
2023/11/04 05:39:44;;;;;;;2.00;1.20;;;;;9.30;95975.00;;;;5033214;28;20049;-64
2023/11/04 05:42:10;;;;;;;1.83;1.10;;;;;9.30;95959.00;;;;5031798;28;20045;-63
2023/11/04 05:44:37;;;;;;;1.00;0.95;;;;;9.40;95958.00;;;;5032612;28;20398;-63
2023/11/04 05:47:04;;;;;;;4.40;1.00;;;;;9.40;95964.00;;;;5033051;28;20131;-63
2023/11/04 05:49:31;;;;;;;1.00;0.90;;;;;9.40;95954.00;;;;5032934;28;20128;-63
2023/11/04 05:51:57;;;;;;;1.13;1.02;;;;;9.30;95941.00;;;;5031901;28;20034;-63
2023/11/04 05:54:24;;;;;;;1.73;0.98;;;;;9.20;95937.00;;;;5031520;28;20038;-63
2023/11/04 05:56:50;;;;;;;1.48;0.90;;;;;9.30;95940.00;;;;5032858;28;20049;-63
2023/11/04 05:59:17;;;;;;;1.92;1.00;;;;;9.30;95937.00;;;;5032812;28;20464;-62
2023/11/04 06:01:44;;;;;;;1.60;1.10;;;;;9.30;95934.00;;;;5032787;28;20045;-62
2023/11/04 06:04:10;;;;;;;1.42;1.00;;;;;9.30;95922.00;;;;5032144;28;20648;-62
2023/11/04 06:06:37;;;;;;;1.63;0.90;;;;;9.30;95925.00;;;;5032740;28;20064;-65
2023/11/04 06:09:03;;;;;;;1.73;1.00;;;;;9.30;95909.00;;;;5032671;28;20067;-62
2023/11/04 06:11:30;;;;;;;3.00;1.00;;;;;9.30;95912.00;;;;5032623;28;20124;-64
2023/11/04 06:13:57;;;;;;;1.15;1.05;;;;;9.30;95922.00;;;;5031938;28;20121;-64
2023/11/04 06:16:23;;;;;;;2.88;0.90;;;;;9.30;95916.00;;;;5032685;28;20125;-63
2023/11/04 06:18:50;;;;;;;2.03;1.02;;;;;9.30;95922.00;;;;5032393;28;20049;-65
2023/11/04 06:21:16;;;;;;;1.90;1.08;;;;;9.40;95917.00;;;;5031287;28;20064;-65
2023/11/04 06:23:43;;;;;;;3.65;1.20;;;;;9.40;95918.00;;;;5031937;28;20091;-64
2023/11/04 06:26:10;;;;;;;1.30;1.17;;;;;9.50;95919.00;;;;5032626;28;20049;-64
2023/11/04 06:28:36;;;;;;;1.55;1.10;;;;;9.50;95912.00;;;;5032339;28;20045;-65
2023/11/04 06:31:10;;;;;;;2.88;1.08;;;;;9.50;95915.00;;;;5032296;28;20049;-63
2023/11/04 06:33:36;;;;;;;3.35;1.00;;;;;9.50;95910.00;;;;5014257;28;20493;-65
2023/11/04 06:36:04;;;;;;;1.98;0.98;;;;;9.50;95906.00;;;;5032348;28;20057;-63
2023/11/04 06:38:30;;;;;;;1.45;1.10;;;;;9.50;95903.00;;;;5032242;28;20132;-64
2023/11/04 06:40:57;;;;;;;2.15;1.10;;;;;9.50;95900.00;;;;5032127;28;20443;-65
2023/11/04 06:43:27;;;;;;;2.90;0.80;;;;;9.50;95892.00;;;;5031213;28;20384;-64
2023/11/04 06:45:54;;;;;;;6.13;1.10;;;;;9.50;95893.00;;;;5032075;28;20041;-65
2023/11/04 06:48:21;;;;;;;1.33;1.10;;;;;9.60;95881.00;;;;5030741;28;20057;-64
2023/11/04 06:50:48;;;;;;;0.80;0.80;;;;;9.70;95881.00;;;;5030736;28;20054;-63
2023/11/04 06:53:14;;;;;;;2.15;1.05;;;;;9.70;95879.00;;;;5031031;28;20046;-65
2023/11/04 06:55:41;;;;;;;1.98;1.10;;;;;9.80;95882.00;;;;5031648;28;20081;-65
2023/11/04 06:58:09;;;;;;;1.40;1.00;;;;;9.90;95878.00;;;;5032142;28;20041;-61
2023/11/04 07:00:35;;;;;;;3.97;1.30;;;;;9.90;95871.00;;;;5030941;28;20084;-62
2023/11/04 07:03:02;;;;;;;1.27;0.80;;;;;9.90;95871.00;;;;5030903;28;20051;-62
2023/11/04 07:05:29;;;;;;;2.05;1.50;;;;;10.00;95871.00;;;;5031466;28;20107;-63
2023/11/04 07:07:55;;;;;;;1.30;1.00;;;;;9.90;95862.00;;;;5031994;28;20041;-63
2023/11/04 07:10:26;;;;;;;1.40;0.93;;;;;10.00;95872.00;;;;5031811;28;20112;-63
2023/11/04 07:12:52;;;;;;;2.67;1.10;;;;;10.00;95863.00;;;;5032103;28;20052;-63
2023/11/04 07:15:19;;;;;;;1.23;1.00;;;;;10.00;95850.00;;;;5031094;28;20049;-63
2023/11/04 07:17:46;;;;;;;1.42;0.93;;;;;10.00;95849.00;;;;5032079;28;20496;-62
2023/11/04 07:20:13;;;;;;;1.75;0.95;;;;;10.10;95854.00;;;;5031612;28;20583;-62
2023/11/04 07:22:40;;;;;;;2.17;1.50;;;;;10.10;95842.00;;;;5031704;28;20071;-62
2023/11/04 07:25:07;;;;;;;2.83;1.20;;;;;10.10;95836.00;;;;5029870;28;20053;-64
2023/11/04 07:27:33;;;;;;;1.40;0.80;;;;;10.20;95834.00;;;;5031719;28;20160;-62
2023/11/04 07:30:00;;;;;;;2.45;1.30;;;;;10.30;95836.00;;;;5031695;28;20041;-62
2023/11/04 07:32:27;;;;;;;2.42;0.75;;;;;10.40;95829.00;;;;5031568;28;20121;-63
2023/11/04 07:34:53;;;;;;;1.35;0.90;;;;;10.50;95833.00;;;;5031039;28;20045;-65
2023/11/04 07:37:20;;;;;;;2.45;0.80;;;;;10.60;95829.00;;;;5031675;28;20071;-63
2023/11/04 07:39:46;;;;;;;1.95;0.80;;;;;10.60;95819.00;;;;5031595;28;20136;-63
2023/11/04 07:42:13;;;;;;;6.55;3.67;;;;;10.70;95828.00;;;;5030451;28;20449;-63
2023/11/04 07:44:40;;;;;;;2.90;1.20;;;;;10.80;95824.00;;;;5030938;28;20045;-65
2023/11/04 07:47:06;;;;;;;1.88;1.20;;;;;10.90;95817.00;;;;5031404;28;20047;-63
2023/11/04 07:49:34;;;;;;;2.40;1.20;;;;;11.00;95815.00;;;;5031454;28;20107;-63
2023/11/04 07:52:01;;;;;;;2.13;1.23;;;;;11.10;95811.00;;;;5031434;28;20107;-62
2023/11/04 07:54:27;;;;;;;2.70;1.00;;;;;11.10;95818.00;;;;5032399;28;20612;-65
2023/11/04 07:56:54;;;;;;;1.80;1.08;;;;;11.10;95813.00;;;;5035288;28;20042;-63
2023/11/04 07:59:21;;;;;;;1.83;1.20;;;;;11.20;95809.00;;;;5034942;28;20500;-63
2023/11/04 08:01:48;;;;;;;2.25;1.50;;;;;11.20;95805.00;;;;5034994;28;20464;-65
2023/11/04 08:04:14;;;;;;;3.53;1.27;;;;;11.20;95793.00;;;;5034455;28;20394;-63
2023/11/04 08:06:42;;;;;;;3.47;1.20;;;;;11.20;95802.00;;;;5035077;28;20052;-63
2023/11/04 08:09:08;;;;;;;3.72;1.50;;;;;11.30;95790.00;;;;5034896;28;20049;-63
2023/11/04 08:11:35;;;;;;;4.03;1.00;;;;;11.40;95775.00;;;;5034992;28;20041;-63
2023/11/04 08:14:02;;;;;;;4.22;1.83;;;;;11.40;95775.00;;;;5034248;28;20120;-62
2023/11/04 08:16:29;;;;;;;4.88;1.02;;;;;11.30;95770.00;;;;5033545;28;20152;-65
2023/11/04 08:18:55;;;;;;;2.67;1.50;;;;;11.30;95770.00;;;;5033279;28;20491;-63
2023/11/04 08:21:23;;;;;;;3.28;2.03;;;;;11.40;95764.00;;;;5033581;28;20466;-63
2023/11/04 08:23:50;;;;;;;2.47;1.77;;;;;11.40;95766.00;;;;5034038;28;20045;-63
2023/11/04 08:26:16;;;;;;;1.85;1.10;;;;;11.40;95760.00;;;;5033382;28;20076;-65
2023/11/04 08:28:43;;;;;;;2.88;1.30;;;;;11.40;95761.00;;;;5034971;28;20037;-63
2023/11/04 08:31:10;;;;;;;2.75;1.30;;;;;11.40;95766.00;;;;5033384;28;20048;-63
2023/11/04 08:33:36;;;;;;;7.72;1.30;;;;;11.40;95767.00;;;;5034657;28;20038;-63
2023/11/04 08:36:03;;;;;;;1.75;0.90;;;;;11.50;95762.00;;;;5033235;28;20124;-66
2023/11/04 08:38:30;;;;;;;1.77;1.00;;;;;11.50;95758.00;;;;5034410;28;20041;-63
2023/11/04 08:40:56;;;;;;;4.13;1.10;;;;;11.50;95754.00;;;;5034408;28;20045;-62
2023/11/04 08:43:23;;;;;;;2.83;1.15;;;;;11.50;95765.00;;;;5034170;28;20129;-63
2023/11/04 08:45:50;;;;;;;3.05;1.50;;;;;11.50;95753.00;;;;5033914;28;20124;-63
2023/11/04 08:48:16;;;;;;;1.30;1.10;;;;;11.50;95749.00;;;;5034298;28;20045;-63
2023/11/04 08:50:43;;;;;;;3.75;1.30;;;;;11.70;95735.00;;;;5033105;28;20042;-62
2023/11/04 08:53:12;;;;;;;2.65;1.23;;;;;11.80;95726.00;;;;5034204;28;20385;-62
2023/11/04 08:55:39;;;;;;;2.03;0.98;;;;;12.00;95702.00;;;;5033682;28;20048;-63
2023/11/04 08:58:05;;;;;;;2.13;1.20;;;;;12.30;95701.00;;;;5032892;28;20042;-63
2023/11/04 09:00:32;;;;;;;2.33;1.05;;;;;12.50;95697.00;;;;5032950;28;20049;-63
2023/11/04 09:03:02;;;;;;;0.77;0.73;;;;;12.60;95694.00;;;;5035081;28;20041;-64
2023/11/04 09:05:28;;;;;;;2.00;0.70;;;;;12.80;95699.00;;;;5042911;28;20056;-64
2023/11/04 09:08:00;;;;;;;1.85;1.30;;;;;12.90;95688.00;;;;5044086;28;20045;-66
2023/11/04 09:10:27;;;;;;;2.08;1.30;;;;;13.10;95679.00;;;;5046781;28;20048;-64
2023/11/04 09:12:54;;;;;;;2.33;1.30;;;;;13.10;95681.00;;;;5042585;28;20073;-62
2023/11/04 09:15:21;;;;;;;1.73;1.33;;;;;13.10;95675.00;;;;5042652;28;20049;-63
2023/11/04 09:17:48;;;;;;;3.08;0.90;;;;;13.10;95670.00;;;;5044302;28;20117;-63
2023/11/04 09:20:15;;;;;;;2.90;1.88;;;;;13.10;95663.00;;;;5044681;28;20103;-63
2023/11/04 09:22:41;;;;;;;1.23;1.00;;;;;13.10;95652.00;;;;5042554;28;20128;-64
2023/11/04 09:25:09;;;;;;;3.35;0.90;;;;;13.00;95658.00;;;;5039860;28;20115;-64
2023/11/04 09:27:36;;;;;;;1.73;1.33;;;;;12.90;95647.00;;;;5043462;28;20080;-64
2023/11/04 09:30:03;;;;;;;1.70;1.13;;;;;12.90;95647.00;;;;5038463;28;20053;-64
2023/11/04 09:32:30;;;;;;;1.92;1.20;;;;;13.00;95644.00;;;;5039913;28;20053;-63
2023/11/04 09:34:56;;;;;;;3.72;0.90;;;;;12.90;95649.00;;;;5038654;28;20080;-63
2023/11/04 09:37:23;;;;;;;9.00;4.40;;;;;12.90;95646.00;;;;5039233;28;20075;-64
2023/11/04 09:39:49;;;;;;;2.28;1.30;;;;;12.70;95637.00;;;;5040025;28;20148;-63
2023/11/04 09:42:16;;;;;;;3.85;1.60;;;;;12.50;95635.00;;;;5039669;28;20076;-63
2023/11/04 09:44:43;;;;;;;3.05;1.13;;;;;12.40;95633.00;;;;5040410;28;20414;-65
2023/11/04 09:47:09;;;;;;;5.05;1.13;;;;;12.30;95631.00;;;;5040622;28;20050;-64
2023/11/04 09:49:36;;;;;;;2.28;1.55;;;;;12.20;95623.00;;;;5039186;28;20060;-63
2023/11/04 09:52:08;;;;;;;2.55;1.60;;;;;12.10;95606.00;;;;5039141;28;20078;-65
2023/11/04 09:54:36;;;;;;;1.98;0.82;;;;;12.10;95612.00;;;;5037534;28;20041;-64
2023/11/04 09:57:03;;;;;;;1.45;1.20;;;;;12.10;95604.00;;;;5032784;28;20075;-65
2023/11/04 09:59:32;;;;;;;2.67;1.38;;;;;12.00;95599.00;;;;5034087;28;20084;-63
2023/11/04 10:01:59;;;;;;;4.70;2.97;;;;;12.10;95595.00;;;;5033736;28;20490;-63
2023/11/04 10:04:25;;;;;;;7.40;5.82;;;;;12.20;95593.00;;;;5032931;28;20128;-65
2023/11/04 10:06:52;;;;;;;3.33;1.45;;;;;12.40;95596.00;;;;5033301;28;20386;-63
2023/11/04 10:09:19;;;;;;;7.03;1.52;;;;;12.40;95589.00;;;;5033000;28;20517;-62
2023/11/04 10:11:45;;;;;;;1.95;1.30;;;;;12.40;95592.00;;;;5032575;28;20053;-63
2023/11/04 10:14:12;;;;;;;2.85;1.50;;;;;12.50;95574.00;;;;5032117;28;20095;-64
2023/11/04 10:16:39;;;;;;;1.33;0.88;;;;;12.50;95572.00;;;;5031094;28;20099;-63
2023/11/04 10:19:06;;;;;;;2.33;1.10;;;;;12.30;95562.00;;;;5032236;28;20055;-63
2023/11/04 10:21:32;;;;;;;1.88;1.40;;;;;12.20;95550.00;;;;5032618;28;20576;-63
2023/11/04 10:23:59;;;;;;;2.55;0.80;;;;;12.10;95544.00;;;;5031138;28;20149;-63
2023/11/04 10:26:27;;;;;;;1.38;0.93;;;;;11.90;95540.00;;;;5032565;28;20128;-63
2023/11/04 10:28:54;;;;;;;5.38;1.05;;;;;11.90;95542.00;;;;5032816;28;20049;-65
2023/11/04 10:31:24;;;;;;;2.72;1.10;;;;;11.80;95537.00;;;;5032571;28;20120;-62
2023/11/04 10:33:55;;;;;;;1.02;0.90;;;;;11.80;95535.00;;;;5014719;28;20465;-64
2023/11/04 10:36:23;;;;;;;1.20;0.85;;;;;11.70;95522.00;;;;5032605;28;20661;-63
2023/11/04 10:38:56;;;;;;;2.72;1.17;;;;;11.80;95516.00;;;;5031011;28;20042;-63
2023/11/04 10:41:51;;;;;;;2.35;1.30;;;;;11.90;95495.00;;;;5032425;28;20046;-63
2023/11/04 10:44:26;;;;;;;2.78;1.55;;;;;12.00;95495.00;;;;5030666;28;20128;-63
2023/11/04 10:47:11;;;;;;;2.22;1.52;;;;;12.00;95503.00;;;;5032183;28;20037;-63
2023/11/04 10:49:53;;;;;;;2.00;1.02;;;;;12.00;95487.00;;;;5032070;28;20132;-63
2023/11/04 10:52:22;;;;;;;1.95;1.17;;;;;11.90;95479.00;;;;5030772;28;20042;-63
2023/11/04 10:54:55;;;;;;;2.55;1.65;;;;;11.90;95487.00;;;;5031752;28;20069;-63
2023/11/04 10:57:32;;;;;;;1.83;1.00;;;;;11.90;95477.00;;;;5014615;28;20092;-63
2023/11/04 11:00:06;;;;;;;2.60;1.67;;;;;11.90;95473.00;;;;5032310;28;20045;-66
2023/11/04 11:02:33;;;;;;;;;;;;;11.90;95463.00;;;;5032647;28;20045;-63
2023/11/04 11:05:01;;;;;;;2.08;1.30;;;;;11.90;95453.00;;;;5031209;28;19976;-63
2023/11/04 11:07:28;;;;;;;3.88;1.67;;;;;12.00;95449.00;;;;5031964;28;20499;-63
2023/11/04 11:09:56;;;;;;;2.50;1.50;;;;;12.10;95445.00;;;;5030691;28;20410;-63
2023/11/04 11:12:25;;;;;;;3.55;2.45;;;;;12.20;95438.00;;;;5030672;28;20050;-64
2023/11/04 11:14:53;;;;;;;4.70;1.75;;;;;12.30;95430.00;;;;5013753;28;20741;-62
2023/11/04 11:17:31;;;;;;;1.00;0.80;;;;;12.30;95435.00;;;;5031856;28;20054;-63
2023/11/04 11:19:58;;;;;;;1.80;0.70;;;;;12.30;95412.00;;;;5031651;28;20045;-64
2023/11/04 11:22:26;;;;;;;3.60;1.63;;;;;12.40;95412.00;;;;5030496;28;20056;-63
2023/11/04 11:24:56;;;;;;;1.40;0.93;;;;;12.60;95407.00;;;;5031306;28;20073;-63
2023/11/04 11:27:24;;;;;;;1.27;1.10;;;;;12.50;95396.00;;;;5031887;28;20529;-63
2023/11/04 11:29:52;;;;;;;0.70;0.70;;;;;12.60;95381.00;;;;5033778;28;20521;-64
2023/11/04 11:32:22;;;;;;;0.75;0.60;;;;;12.70;95364.00;;;;5035653;28;20132;-64
2023/11/04 11:34:55;;;;;;;1.08;0.93;;;;;12.70;95364.00;;;;5035293;28;20049;-65
2023/11/04 11:37:23;;;;;;;0.32;0.32;;;;;12.70;95355.00;;;;5035875;28;20057;-64
2023/11/04 11:39:51;;;;;;;1.45;0.93;;;;;12.60;95363.00;;;;5034133;28;20053;-64
2023/11/04 11:42:25;;;;;;;2.15;1.33;;;;;12.70;95374.00;;;;5034330;28;20045;-64
2023/11/04 11:44:51;;;;;;;2.47;1.58;;;;;12.70;95380.00;;;;5034895;28;20120;-64
2023/11/04 11:47:18;;;;;;;2.60;2.08;;;;;12.60;95386.00;;;;5035506;28;20044;-63
2023/11/04 11:49:45;;;;;;;3.10;1.00;;;;;12.50;95346.00;;;;5035520;28;20049;-64
2023/11/04 11:52:11;;;;;;;4.45;1.75;;;;;12.50;95355.00;;;;5017681;28;20053;-62
2023/11/04 11:54:39;;;;;;;1.55;0.70;;;;;12.50;95349.00;;;;5034774;28;20037;-62
2023/11/04 11:57:05;;;;;;;2.47;1.20;;;;;12.30;95337.00;;;;5035203;28;20068;-62
2023/11/04 11:59:35;;;;;;;1.23;1.00;;;;;12.20;95338.00;;;;5035270;28;20494;-62
2023/11/04 12:02:02;;;;;;;1.73;1.00;;;;;12.10;95341.00;;;;5035068;28;20076;-63
2023/11/04 12:04:29;;;;;;;0.80;0.80;;;;;12.10;95328.00;;;;5034435;28;20037;-63
2023/11/04 12:06:57;;;;;;;1.05;0.60;;;;;11.90;95319.00;;;;5035052;28;20069;-63
2023/11/04 12:09:24;;;;;;;2.13;0.88;;;;;11.70;95314.00;;;;5034868;28;20050;-63
2023/11/04 12:11:54;;;;;;;4.32;1.00;;;;;11.60;95319.00;;;;5034827;28;20425;-62
2023/11/04 12:14:23;;;;;;;3.30;1.30;;;;;11.60;95304.00;;;;5033206;28;20045;-63
2023/11/04 12:16:51;;;;;;;1.65;0.90;;;;;11.60;95294.00;;;;5034659;28;20473;-65
2023/11/04 12:19:17;;;;;;;1.55;0.40;;;;;11.60;95290.00;;;;5035054;28;20135;-64
2023/11/04 12:21:44;;;;;;;0.82;0.50;;;;;11.50;95286.00;;;;5034982;28;20045;-63
2023/11/04 12:24:11;;;;;;;0.98;0.60;;;;;11.50;95277.00;;;;5034545;28;20406;-63